Time;durP1;ratioP1;P1;durP2;ratioP2;P2;SDS_P1;SDS_P2;PMS_P1;PMS_P2;Temp;Humidity;BMP_temperature;BMP_pressure;BME280_temperature;BME280_humidity;BME280_pressure;Samples;Min_cycle;Max_cycle;Signal;HPM_P1;HPM_P2
2022/09/04 00:02:24;;;;;;;4.07;1.30;;;17.00;60.40;;;;;;5052647;28;20277;-76
2022/09/04 00:05:11;;;;;;;5.37;1.20;;;17.00;60.20;;;;;;5054202;28;20176;-79
2022/09/04 00:07:57;;;;;;;5.07;1.30;;;17.00;60.30;;;;;;5057166;28;20655;-82
2022/09/04 00:10:46;;;;;;;3.70;1.40;;;17.00;60.40;;;;;;5069240;28;20170;-77
2022/09/04 00:13:22;;;;;;;4.50;1.70;;;17.10;59.40;;;;;;5067846;28;20178;-77
2022/09/04 00:16:11;;;;;;;5.80;1.23;;;17.30;59.10;;;;;;5057164;28;20175;-75
2022/09/04 00:18:42;;;;;;;3.07;1.17;;;17.30;57.20;;;;;;5065749;28;20176;-75
2022/09/04 00:21:34;;;;;;;2.83;1.00;;;17.30;57.70;;;;;;5054060;28;20198;-75
2022/09/04 00:24:14;;;;;;;7.10;1.23;;;17.30;57.70;;;;;;5053034;28;20181;-77
2022/09/04 00:26:57;;;;;;;2.40;1.37;;;17.50;58.80;;;;;;5073876;28;20727;-74
2022/09/04 00:29:47;;;;;;;7.33;2.07;;;17.40;56.00;;;;;;5068167;28;20186;-74
2022/09/04 00:32:38;;;;;;;4.50;1.30;;;17.40;57.00;;;;;;5074231;28;20641;-75
2022/09/04 00:35:14;;;;;;;4.93;1.73;;;17.50;57.60;;;;;;5066141;28;20206;-76
2022/09/04 00:37:48;;;;;;;7.87;1.53;;;17.90;59.10;;;;;;5057031;28;20182;-76
2022/09/04 00:40:29;;;;;;;4.13;1.50;;;18.00;58.70;;;;;;5054467;28;20178;-79
2022/09/04 00:43:30;;;;;;;13.87;3.27;;;17.90;60.20;;;;;;5053958;28;20186;-77
2022/09/04 00:46:18;;;;;;;12.43;2.53;;;17.20;63.30;;;;;;5053718;28;20183;-77
2022/09/04 00:49:13;;;;;;;5.53;1.47;;;16.90;63.80;;;;;;5062999;28;20220;-77
2022/09/04 00:51:52;;;;;;;7.20;1.37;;;17.30;60.10;;;;;;5059735;28;20296;-86
2022/09/04 00:54:20;;;;;;;5.43;1.63;;;17.40;59.30;;;;;;5053705;28;20558;-80
2022/09/04 00:56:59;;;;;;;9.50;2.20;;;17.50;58.30;;;;;;5071141;28;20175;-78
2022/09/04 00:59:42;;;;;;;7.10;2.93;;;17.50;58.80;;;;;;5054423;28;20206;-82
2022/09/04 01:02:39;;;;;;;7.73;3.57;;;17.60;58.20;;;;;;5053464;28;20207;-81
2022/09/04 01:05:32;;;;;;;4.40;1.23;;;17.60;56.70;;;;;;5054365;28;20187;-75
2022/09/04 01:08:14;;;;;;;4.53;1.27;;;17.60;55.40;;;;;;5059632;28;20214;-74
2022/09/04 01:10:58;;;;;;;8.17;1.67;;;17.90;54.60;;;;;;5052323;28;20199;-77
2022/09/04 01:13:59;;;;;;;4.33;1.17;;;18.20;54.50;;;;;;5052678;28;20192;-79
2022/09/04 01:16:41;;;;;;;8.73;1.83;;;18.60;54.00;;;;;;5053024;28;20179;-73
2022/09/04 01:19:24;;;;;;;7.10;1.80;;;18.30;56.20;;;;;;5053255;28;20184;-75
2022/09/04 01:22:11;;;;;;;8.70;1.80;;;18.20;56.60;;;;;;5052922;28;20233;-76
2022/09/04 01:25:10;;;;;;;7.30;1.80;;;17.90;57.30;;;;;;5053205;28;20203;-75
2022/09/04 01:27:50;;;;;;;8.33;2.10;;;17.40;58.60;;;;;;5054048;28;20199;-71
2022/09/04 01:30:22;;;;;;;4.87;1.50;;;17.40;56.40;;;;;;5059889;28;20562;-75
2022/09/04 01:33:19;;;;;;;4.33;1.30;;;17.70;52.00;;;;;;5053563;28;20713;-73
2022/09/04 01:36:08;;;;;;;3.57;1.07;;;17.80;50.70;;;;;;5064041;28;20197;-76
2022/09/04 01:38:59;;;;;;;5.03;1.43;;;18.10;50.60;;;;;;5064199;28;20178;-81
2022/09/04 01:41:35;;;;;;;2.77;1.07;;;18.50;48.90;;;;;;5056930;28;20215;-74
2022/09/04 01:44:09;;;;;;;5.70;1.30;;;18.80;48.90;;;;;;5057242;28;20234;-80
2022/09/04 01:46:39;;;;;;;4.00;1.07;;;18.80;47.40;;;;;;5060157;28;20540;-75
2022/09/04 01:49:29;;;;;;;5.60;1.27;;;18.60;47.60;;;;;;5058047;28;20215;-79
2022/09/04 01:52:18;;;;;;;2.97;0.90;;;18.20;48.30;;;;;;5061555;28;20213;-80
2022/09/04 01:55:07;;;;;;;2.90;1.27;;;18.40;46.60;;;;;;5062468;28;20187;-77
2022/09/04 01:57:46;;;;;;;8.43;1.60;;;18.90;47.80;;;;;;5054370;28;20182;-77
2022/09/04 02:00:21;;;;;;;4.23;1.37;;;19.10;48.30;;;;;;5065418;28;20645;-82
2022/09/04 02:03:13;;;;;;;6.10;1.53;;;19.10;49.30;;;;;;5052190;28;20520;-81
2022/09/04 02:06:03;;;;;;;8.47;1.50;;;19.10;47.40;;;;;;5072231;28;20177;-80
2022/09/04 02:08:37;;;;;;;7.03;1.30;;;19.00;48.60;;;;;;5072979;28;20199;-76
2022/09/04 02:11:09;;;;;;;6.13;1.43;;;19.20;46.70;;;;;;5084741;28;20178;-84
2022/09/04 02:14:07;;;;;;;5.70;1.40;;;19.30;46.50;;;;;;5078418;28;20175;-76
2022/09/04 02:16:55;;;;;;;8.03;2.10;;;19.80;47.10;;;;;;5051222;28;20172;-81
2022/09/04 02:20:00;;;;;;;9.10;1.97;;;19.50;51.50;;;;;;5052516;28;20525;-78
2022/09/04 02:22:34;;;;;;;5.50;1.60;;;18.90;54.80;;;;;;5042283;28;20207;-81
2022/09/04 02:25:25;;;;;;;6.03;1.57;;;19.10;53.60;;;;;;5054275;28;20620;-81
2022/09/04 02:28:28;;;;;;;7.53;1.87;;;18.90;54.40;;;;;;5069219;28;20272;-82
2022/09/04 02:30:56;;;;;;;9.00;2.10;;;18.70;55.70;;;;;;5063658;28;20276;-76
2022/09/04 02:34:17;;;;;;;9.67;1.67;;;18.90;55.30;;;;;;5058609;28;20602;-80
2022/09/04 02:37:00;;;;;;;8.73;2.23;;;18.70;56.20;;;;;;5034000;28;20180;-78
2022/09/04 02:39:52;;;;;;;12.77;2.13;;;18.50;57.20;;;;;;5033892;28;20643;-84
2022/09/04 02:42:36;;;;;;;10.07;1.77;;;18.40;56.90;;;;;;5070886;28;20720;-80
2022/09/04 02:45:22;;;;;;;4.23;1.90;;;18.80;55.70;;;;;;5076078;28;20151;-83
2022/09/04 02:48:12;;;;;;;12.67;2.37;;;18.70;54.40;;;;;;5064361;28;20286;-80
2022/09/04 02:51:03;;;;;;;7.40;1.50;;;18.30;55.70;;;;;;5055855;28;20692;-79
2022/09/04 02:53:47;;;;;;;6.10;1.70;;;18.00;56.50;;;;;;5056124;28;20165;-79
2022/09/04 02:56:51;;;;;;;10.73;1.97;;;17.60;56.20;;;;;;5055602;28;20528;-83
2022/09/04 02:59:39;;;;;;;8.07;1.63;;;17.90;56.90;;;;;;5055630;28;20175;-77
2022/09/04 03:02:17;;;;;;;7.77;1.63;;;18.80;55.40;;;;;;5055566;28;20172;-83
2022/09/04 03:04:50;;;;;;;9.97;1.87;;;18.30;57.00;;;;;;5055813;28;20175;-76
2022/09/04 03:07:38;;;;;;;5.67;1.70;;;17.80;59.30;;;;;;5055748;28;20605;-82
2022/09/04 03:10:05;;;;;;;7.20;1.37;;;17.70;58.40;;;;;;5054068;28;20188;-81
2022/09/04 03:12:36;;;;;;;8.87;2.00;;;17.70;58.50;;;;;;5055426;28;20175;-80
2022/09/04 03:15:21;;;;;;;10.97;1.80;;;17.90;58.10;;;;;;5054950;28;20180;-74
2022/09/04 03:18:21;;;;;;;12.67;1.83;;;18.40;55.50;;;;;;5055302;28;20648;-77
2022/09/04 03:21:00;;;;;;;6.03;1.87;;;18.30;56.90;;;;;;5055371;28;20265;-79
2022/09/04 03:24:05;;;;;;;5.17;2.00;;;18.30;57.90;;;;;;5055189;28;20195;-81
2022/09/04 03:26:38;;;;;;;11.27;2.10;;;18.40;56.70;;;;;;5055213;28;20236;-81
2022/09/04 03:29:23;;;;;;;7.67;2.30;;;18.30;56.50;;;;;;5055307;28;20227;-75
2022/09/04 03:32:15;;;;;;;5.43;1.40;;;18.40;56.20;;;;;;5055242;28;20259;-77
2022/09/04 03:34:59;;;;;;;4.23;1.23;;;18.00;57.10;;;;;;5057694;28;20267;-82
2022/09/04 03:37:41;;;;;;;6.17;1.60;;;17.90;57.50;;;;;;5055890;28;20179;-78
2022/09/04 03:40:46;;;;;;;12.70;2.30;;;18.00;58.30;;;;;;5067040;28;20580;-77
2022/09/04 03:43:35;;;;;;;11.40;1.80;;;17.90;57.90;;;;;;5054080;28;20206;-81
2022/09/04 03:46:40;;;;;;;5.97;1.70;;;18.00;58.00;;;;;;5054351;28;20203;-79
2022/09/04 03:49:22;;;;;;;6.40;1.87;;;18.10;55.70;;;;;;5032855;28;20245;-77
2022/09/04 03:52:04;;;;;;;10.43;2.57;;;18.30;56.30;;;;;;5042726;28;20548;-79
2022/09/04 03:55:08;;;;;;;6.67;1.93;;;18.30;55.80;;;;;;5050036;28;20191;-78
2022/09/04 03:58:04;;;;;;;8.70;1.93;;;18.20;56.10;;;;;;5054695;28;20229;-83
2022/09/04 04:00:44;;;;;;;8.30;1.50;;;17.90;55.70;;;;;;5053375;28;20187;-79
2022/09/04 04:03:30;;;;;;;10.43;1.90;;;18.10;56.30;;;;;;5053917;28;20168;-78
2022/09/04 04:06:12;;;;;;;6.43;1.20;;;18.30;55.40;;;;;;5054095;28;20219;-81
2022/09/04 04:09:04;;;;;;;11.07;2.27;;;18.10;55.80;;;;;;5059555;28;20264;-77
2022/09/04 04:11:53;;;;;;;12.60;4.03;;;17.30;63.10;;;;;;5054347;28;20188;-79
2022/09/04 04:14:40;;;;;;;11.27;2.43;;;16.80;69.40;;;;;;5054763;28;20650;-81
2022/09/04 04:17:23;;;;;;;14.40;2.67;;;16.30;74.50;;;;;;5063560;28;20179;-79
2022/09/04 04:20:01;;;;;;;12.47;3.00;;;16.10;78.10;;;;;;5059661;28;20312;-80
2022/09/04 04:22:53;;;;;;;16.20;2.70;;;15.70;78.60;;;;;;5055922;28;20188;-80
2022/09/04 04:25:37;;;;;;;11.47;2.30;;;15.80;78.50;;;;;;5053604;28;20205;-84
2022/09/04 04:28:28;;;;;;;9.37;1.80;;;15.50;78.00;;;;;;5053399;28;20198;-83
2022/09/04 04:31:14;;;;;;;7.03;1.73;;;15.50;79.60;;;;;;5053436;28;20188;-83
2022/09/04 04:33:48;;;;;;;12.07;2.53;;;15.10;78.80;;;;;;5053533;28;20249;-79
2022/09/04 04:36:35;;;;;;;7.17;2.40;;;14.80;80.30;;;;;;5053446;28;20609;-76
2022/09/04 04:39:08;;;;;;;13.83;2.80;;;14.50;82.30;;;;;;5067334;28;20260;-76
2022/09/04 04:42:05;;;;;;;10.40;2.33;;;14.40;83.10;;;;;;5056563;28;20707;-76
2022/09/04 04:48:17;;;;;;;11.13;2.90;;;14.30;84.00;;;;;;5050704;28;20242;-77
2022/09/04 04:50:53;;;;;;;11.10;2.50;;;14.30;85.20;;;;;;5053301;28;20174;-76
2022/09/04 04:54:05;;;;;;;15.17;2.60;;;14.20;85.90;;;;;;5056649;28;20280;-75
2022/09/04 04:57:17;;;;;;;17.97;2.70;;;14.20;86.40;;;;;;5068023;28;20170;-77
2022/09/04 05:00:05;;;;;;;14.67;2.80;;;14.30;85.30;;;;;;5060791;28;20174;-77
2022/09/04 05:02:59;;;;;;;14.57;2.93;;;14.30;85.50;;;;;;5062778;28;20187;-77
2022/09/04 05:05:33;;;;;;;12.10;3.03;;;14.30;85.50;;;;;;5053613;28;20182;-76
2022/09/04 05:08:32;;;;;;;10.67;3.17;;;14.40;85.40;;;;;;5058292;28;20210;-77
2022/09/04 05:11:21;;;;;;;12.07;2.97;;;14.60;85.10;;;;;;5050600;28;20647;-79
2022/09/04 05:13:57;;;;;;;16.53;2.57;;;14.40;82.20;;;;;;5052941;28;20621;-76
2022/09/04 05:17:07;;;;;;;12.13;2.87;;;14.50;80.50;;;;;;5052738;28;20183;-77
2022/09/04 05:20:11;;;;;;;9.03;2.80;;;14.50;82.10;;;;;;5055336;28;20247;-80
2022/09/04 05:22:44;;;;;;;11.50;2.90;;;14.70;82.60;;;;;;5063337;28;20180;-77
2022/09/04 05:25:30;;;;;;;14.60;3.03;;;14.80;82.10;;;;;;5070805;28;20182;-77
2022/09/04 05:28:22;;;;;;;13.07;3.10;;;15.10;83.00;;;;;;5054754;28;20208;-78
2022/09/04 05:30:59;;;;;;;18.67;2.67;;;15.40;82.60;;;;;;5052716;28;20179;-80
2022/09/04 05:33:37;;;;;;;10.63;2.47;;;15.80;81.10;;;;;;5053151;28;20259;-78
2022/09/04 05:36:16;;;;;;;13.73;2.80;;;15.90;81.20;;;;;;5058677;28;20543;-80
2022/09/04 05:39:24;;;;;;;11.60;2.10;;;16.00;80.60;;;;;;5073116;28;20188;-78
2022/09/04 05:42:29;;;;;;;7.23;1.87;;;16.10;75.60;;;;;;5052574;28;20718;-78
2022/09/04 05:45:24;;;;;;;6.40;1.80;;;17.40;66.30;;;;;;5051427;28;20181;-78
2022/09/04 05:48:24;;;;;;;5.40;1.37;;;18.50;63.00;;;;;;5053296;28;20204;-77
2022/09/04 05:51:42;;;;;;;6.57;1.50;;;19.30;57.20;;;;;;5048545;28;20188;-76
2022/09/04 05:54:18;;;;;;;5.87;1.60;;;19.80;55.50;;;;;;5042910;28;20597;-81
2022/09/04 05:57:08;;;;;;;9.67;1.53;;;19.90;53.10;;;;;;5052472;28;20195;-78
2022/09/04 05:59:56;;;;;;;5.07;1.63;;;19.60;51.70;;;;;;5069167;28;20863;-74
2022/09/04 06:02:30;;;;;;;7.73;1.40;;;19.10;52.30;;;;;;5074795;28;20252;-82
2022/09/04 06:05:00;;;;;;;9.97;1.60;;;19.40;52.90;;;;;;5065077;28;20183;-80
2022/09/04 06:07:58;;;;;;;6.63;1.53;;;19.70;53.30;;;;;;5076314;28;20680;-76
2022/09/04 06:10:59;;;;;;;4.83;1.60;;;20.10;51.60;;;;;;5062961;28;20210;-80
2022/09/04 06:13:57;;;;;;;9.20;1.77;;;20.30;52.10;;;;;;5065571;28;20229;-82
2022/09/04 06:16:42;;;;;;;5.23;1.63;;;20.50;50.50;;;;;;5050897;28;20227;-84
2022/09/04 06:19:17;;;;;;;6.03;1.70;;;20.60;51.00;;;;;;5062930;28;20193;-86
2022/09/04 06:22:11;;;;;;;8.63;1.90;;;20.00;50.60;;;;;;5057167;28;20210;-79
2022/09/04 06:24:59;;;;;;;5.87;1.60;;;18.90;52.30;;;;;;5058634;28;20187;-80
2022/09/04 06:27:35;;;;;;;6.43;1.67;;;17.80;56.10;;;;;;5054074;28;20253;-80
2022/09/04 06:30:11;;;;;;;9.20;1.60;;;17.70;56.50;;;;;;5060374;28;20182;-80
2022/09/04 06:33:11;;;;;;;8.53;1.90;;;17.30;59.40;;;;;;5055869;28;20236;-81
2022/09/04 06:35:47;;;;;;;7.70;2.70;;;17.00;63.90;;;;;;5053966;28;20182;-78
2022/09/04 06:38:39;;;;;;;13.77;2.50;;;16.70;67.20;;;;;;5059668;28;20185;-80
2022/09/04 06:41:25;;;;;;;11.60;2.20;;;16.70;68.10;;;;;;5051592;28;20265;-79
2022/09/04 06:44:13;;;;;;;16.73;2.70;;;16.60;69.40;;;;;;5060143;28;20193;-80
2022/09/04 06:46:47;;;;;;;6.10;1.50;;;16.20;70.70;;;;;;5051845;28;20641;-81
2022/09/04 06:49:37;;;;;;;11.30;2.50;;;15.90;70.80;;;;;;5051995;28;20297;-81
2022/09/04 06:52:37;;;;;;;8.00;1.97;;;16.00;70.40;;;;;;5056430;28;20192;-80
2022/09/04 06:55:13;;;;;;;15.27;2.77;;;15.90;71.70;;;;;;5056206;28;20194;-81
2022/09/04 06:58:01;;;;;;;9.47;1.90;;;15.80;71.90;;;;;;5075504;28;20168;-80
2022/09/04 07:00:39;;;;;;;10.80;2.10;;;15.80;71.60;;;;;;5056732;28;20672;-76
2022/09/04 07:03:09;;;;;;;10.33;2.27;;;15.60;72.00;;;;;;5068348;28;20224;-83
2022/09/04 07:05:52;;;;;;;7.43;2.07;;;15.50;73.00;;;;;;5052255;28;20176;-75
2022/09/04 07:08:44;;;;;;;5.93;1.40;;;15.20;74.80;;;;;;5056179;28;20204;-80
2022/09/04 07:11:24;;;;;;;8.60;1.40;;;14.80;74.80;;;;;;5070088;28;20192;-75
2022/09/04 07:14:21;;;;;;;9.20;2.33;;;14.80;75.20;;;;;;5055268;28;20313;-81
2022/09/04 07:17:08;;;;;;;5.27;1.47;;;14.60;75.10;;;;;;5070308;28;20179;-80
2022/09/04 07:19:50;;;;;;;2.63;1.30;;;14.50;75.40;;;;;;5062557;28;20592;-86
2022/09/04 07:22:48;;;;;;;8.70;1.70;;;14.50;75.50;;;;;;5055324;28;20282;-75
2022/09/04 07:25:36;;;;;;;7.57;2.00;;;14.40;74.20;;;;;;5075501;28;20184;-74
2022/09/04 07:28:12;;;;;;;12.60;2.83;;;14.50;74.30;;;;;;5056555;28;20203;-83
2022/09/04 07:30:53;;;;;;;6.77;1.97;;;14.50;74.40;;;;;;5062240;28;20179;-78
2022/09/04 07:33:30;;;;;;;5.10;2.10;;;14.50;74.60;;;;;;5059798;28;20565;-78
2022/09/04 07:36:36;;;;;;;6.90;2.40;;;14.40;74.40;;;;;;5054109;28;20598;-78
2022/09/04 07:39:15;;;;;;;5.10;1.77;;;14.40;74.90;;;;;;5062537;28;20660;-73
2022/09/04 07:42:33;;;;;;;6.20;2.00;;;14.50;75.90;;;;;;5063155;28;20315;-75
2022/09/04 07:45:21;;;;;;;7.27;2.77;;;14.30;75.50;;;;;;5061175;28;20282;-74
2022/09/04 07:48:42;;;;;;;9.50;2.80;;;14.40;75.50;;;;;;5064898;28;20214;-76
2022/09/04 07:51:46;;;;;;;4.53;1.87;;;14.40;76.30;;;;;;5045507;28;20192;-75
2022/09/04 07:54:23;;;;;;;9.30;2.47;;;14.30;76.50;;;;;;5055422;28;20241;-74
2022/09/04 07:57:02;;;;;;;6.77;1.87;;;14.30;76.90;;;;;;5069201;28;20231;-76
2022/09/04 07:59:51;;;;;;;6.37;1.97;;;14.20;77.30;;;;;;5066258;28;20178;-78
2022/09/04 08:02:57;;;;;;;9.67;1.97;;;14.20;77.40;;;;;;5074795;28;20179;-74
2022/09/04 08:05:30;;;;;;;7.67;2.10;;;14.10;77.80;;;;;;5064562;28;20170;-79
2022/09/04 08:08:34;;;;;;;10.37;2.00;;;14.00;77.90;;;;;;5060312;28;20645;-81
2022/09/04 08:11:30;;;;;;;6.77;2.60;;;14.00;77.90;;;;;;5055879;28;20171;-75
2022/09/04 08:14:22;;;;;;;5.27;1.40;;;14.00;78.00;;;;;;5053991;28;20182;-77
2022/09/04 08:17:25;;;;;;;10.50;2.43;;;14.00;79.80;;;;;;5054103;28;20176;-77
2022/09/04 08:20:14;;;;;;;8.40;2.53;;;13.80;82.00;;;;;;5058977;28;20181;-77
2022/09/04 08:23:12;;;;;;;7.20;2.17;;;13.80;83.40;;;;;;5067540;28;20182;-78
2022/09/04 08:25:58;;;;;;;6.43;2.63;;;13.80;84.30;;;;;;5061053;28;20184;-77
2022/09/04 08:28:55;;;;;;;7.70;2.07;;;13.70;85.50;;;;;;5056938;28;20222;-75
2022/09/04 08:31:31;;;;;;;10.07;2.27;;;13.70;85.30;;;;;;5053257;28;20180;-77
2022/09/04 08:34:12;;;;;;;8.33;2.50;;;13.70;85.70;;;;;;5053383;28;20184;-77
2022/09/04 08:36:48;;;;;;;12.37;2.80;;;13.70;84.90;;;;;;5062397;28;20220;-77
2022/09/04 08:39:44;;;;;;;9.63;2.63;;;13.60;84.40;;;;;;5057828;28;20236;-77
2022/09/04 08:42:39;;;;;;;10.80;2.40;;;13.70;84.80;;;;;;5052855;28;20224;-77
2022/09/04 08:45:34;;;;;;;9.10;2.73;;;13.60;85.00;;;;;;5078720;28;20270;-77
2022/09/04 08:48:24;;;;;;;11.13;3.63;;;13.60;84.90;;;;;;5057042;28;20234;-76
2022/09/04 08:51:06;;;;;;;9.67;3.27;;;13.50;85.20;;;;;;5053141;28;20936;-76
2022/09/04 08:53:49;;;;;;;9.80;3.30;;;13.50;85.40;;;;;;5053194;28;20183;-77
2022/09/04 08:56:52;;;;;;;10.03;2.77;;;13.50;86.20;;;;;;5056777;28;20179;-76
2022/09/04 08:59:56;;;;;;;9.73;3.30;;;13.50;86.50;;;;;;5053116;28;20546;-77
2022/09/04 09:02:45;;;;;;;14.80;3.73;;;13.50;86.80;;;;;;5067393;28;20174;-75
2022/09/04 09:05:32;;;;;;;13.53;4.90;;;13.40;85.90;;;;;;5056223;28;20179;-75
2022/09/04 09:08:36;;;;;;;12.20;4.03;;;13.30;85.50;;;;;;5056621;28;20206;-77
2022/09/04 09:11:24;;;;;;;11.57;3.13;;;13.50;85.20;;;;;;5062764;28;20257;-75
2022/09/04 09:14:13;;;;;;;8.73;3.00;;;13.50;83.30;;;;;;5052675;28;20179;-78
2022/09/04 09:16:52;;;;;;;7.77;2.20;;;13.40;82.00;;;;;;5051501;28;20602;-77
2022/09/04 09:19:27;;;;;;;8.23;2.47;;;13.50;80.80;;;;;;5052804;28;20258;-77
2022/09/04 09:22:19;;;;;;;8.33;2.30;;;13.60;80.60;;;;;;5053327;28;20695;-76
2022/09/04 09:25:05;;;;;;;8.50;2.63;;;13.60;80.60;;;;;;5071746;28;20300;-78
2022/09/04 09:28:08;;;;;;;8.53;2.50;;;13.70;80.80;;;;;;5059604;28;20204;-80
2022/09/04 09:30:49;;;;;;;15.17;2.20;;;13.70;80.40;;;;;;5058024;28;20184;-78
2022/09/04 09:33:22;;;;;;;10.80;2.53;;;13.70;80.50;;;;;;5051567;28;20183;-78
2022/09/04 09:36:14;;;;;;;13.93;3.13;;;13.70;80.50;;;;;;5054412;28;20191;-77
2022/09/04 09:38:54;;;;;;;8.27;2.40;;;13.80;80.40;;;;;;5062744;28;20227;-76
2022/09/04 09:41:52;;;;;;;7.93;2.20;;;13.80;80.50;;;;;;5056801;28;20234;-77
2022/09/04 09:44:54;;;;;;;7.93;2.73;;;13.80;81.00;;;;;;5065560;28;20232;-76
2022/09/04 09:47:51;;;;;;;11.77;2.93;;;13.80;81.70;;;;;;5065418;28;20238;-77
2022/09/04 09:50:21;;;;;;;9.93;3.10;;;13.80;82.20;;;;;;5053106;28;20197;-76
2022/09/04 09:53:13;;;;;;;14.07;2.80;;;13.80;82.50;;;;;;5052199;28;20651;-76
2022/09/04 09:56:10;;;;;;;11.33;3.37;;;13.70;82.40;;;;;;5054982;28;20176;-76
2022/09/04 09:58:55;;;;;;;13.90;3.30;;;13.70;83.10;;;;;;5052663;28;20175;-77
2022/09/04 10:01:51;;;;;;;10.10;2.93;;;13.60;83.00;;;;;;5051716;28;20183;-77
2022/09/04 10:04:51;;;;;;;9.77;3.00;;;13.50;83.60;;;;;;5053605;28;20191;-78
2022/09/04 10:07:41;;;;;;;8.10;2.70;;;13.50;83.50;;;;;;5051083;28;20630;-76
2022/09/04 10:11:00;;;;;;;7.27;2.57;;;13.30;83.30;;;;;;5067870;28;20187;-76
2022/09/04 10:13:46;;;;;;;12.63;2.20;;;13.30;83.80;;;;;;5069676;28;20185;-76
2022/09/04 10:16:35;;;;;;;14.00;2.80;;;13.20;84.00;;;;;;5061015;28;20591;-77
2022/09/04 10:19:15;;;;;;;8.70;2.97;;;13.10;84.20;;;;;;5052165;28;20262;-76
2022/09/04 10:21:48;;;;;;;7.70;3.17;;;13.00;84.60;;;;;;5054038;28;20226;-76
2022/09/04 10:24:30;;;;;;;9.23;2.80;;;13.00;84.90;;;;;;5050981;28;20536;-77
2022/09/04 10:27:30;;;;;;;10.90;3.27;;;12.90;85.30;;;;;;5051979;28;20184;-75
2022/09/04 10:29:57;;;;;;;9.27;3.13;;;12.90;85.80;;;;;;5051271;28;20211;-76
2022/09/04 10:32:31;;;;;;;10.07;2.90;;;12.80;86.00;;;;;;5055271;28;20263;-81
2022/09/04 10:35:27;;;;;;;7.37;2.53;;;12.80;86.10;;;;;;5052086;28;20218;-80
2022/09/04 10:38:21;;;;;;;13.47;3.30;;;12.80;86.20;;;;;;5057768;28;20187;-78
2022/09/04 10:41:24;;;;;;;8.23;3.20;;;12.80;86.60;;;;;;5054498;28;20656;-76
2022/09/04 10:43:57;;;;;;;7.63;2.53;;;12.80;86.60;;;;;;5056658;28;20175;-74
2022/09/04 10:46:49;;;;;;;10.47;3.07;;;12.70;86.70;;;;;;5058553;28;20706;-76
2022/09/04 10:49:35;;;;;;;9.63;2.57;;;12.70;86.80;;;;;;5055878;28;20234;-83
2022/09/04 10:52:20;;;;;;;8.97;2.53;;;12.60;87.00;;;;;;5056615;28;20172;-78
2022/09/04 10:55:26;;;;;;;12.30;3.03;;;12.60;87.10;;;;;;5055997;28;20179;-79
2022/09/04 10:58:03;;;;;;;9.73;2.80;;;12.70;87.20;;;;;;5056647;28;20661;-78
2022/09/04 11:01:10;;;;;;;10.67;3.30;;;12.60;87.10;;;;;;5064882;28;20199;-79
2022/09/04 11:04:00;;;;;;;12.40;3.93;;;12.50;87.20;;;;;;5055473;28;20175;-74
2022/09/04 11:07:07;;;;;;;12.13;2.93;;;12.50;87.40;;;;;;5054297;28;20223;-78
2022/09/04 11:09:45;;;;;;;6.87;2.50;;;12.30;87.60;;;;;;5071821;28;20249;-77
2022/09/04 11:12:29;;;;;;;13.03;2.37;;;12.30;87.30;;;;;;5056095;28;20172;-78
2022/09/04 11:15:15;;;;;;;7.53;2.40;;;12.20;87.10;;;;;;5062297;28;20183;-79
2022/09/04 11:18:08;;;;;;;7.70;2.70;;;12.20;87.00;;;;;;5054732;28;20182;-79
2022/09/04 11:21:04;;;;;;;10.60;2.70;;;12.20;86.90;;;;;;5055158;28;20575;-75
2022/09/04 11:23:37;;;;;;;9.30;2.63;;;12.20;87.00;;;;;;5062828;28;20175;-78
2022/09/04 11:26:22;;;;;;;9.30;2.40;;;12.10;87.00;;;;;;5054928;28;20295;-77
2022/09/04 11:29:18;;;;;;;7.60;2.57;;;12.10;87.00;;;;;;5056246;28;20207;-77
2022/09/04 11:32:10;;;;;;;9.40;2.70;;;12.00;87.00;;;;;;5051353;28;20195;-77
2022/09/04 11:35:02;;;;;;;11.90;2.83;;;12.00;87.30;;;;;;5054367;28;20176;-77
2022/09/04 11:37:55;;;;;;;6.57;2.67;;;12.00;86.90;;;;;;5055170;28;20732;-79
2022/09/04 11:40:32;;;;;;;8.47;2.80;;;11.90;86.90;;;;;;5060218;28;20276;-78
2022/09/04 11:43:23;;;;;;;6.97;2.80;;;11.90;86.80;;;;;;5054288;28;20218;-77
2022/09/04 11:45:57;;;;;;;7.73;2.63;;;11.90;87.20;;;;;;5054829;28;20307;-77
2022/09/04 11:48:25;;;;;;;7.93;2.77;;;11.80;87.30;;;;;;5066405;28;20210;-77
2022/09/04 11:51:23;;;;;;;13.77;3.00;;;11.80;87.40;;;;;;5054157;28;20183;-78
2022/09/04 11:54:15;;;;;;;9.07;3.07;;;11.80;87.60;;;;;;5060914;28;20179;-78
2022/09/04 11:57:00;;;;;;;12.13;3.17;;;11.80;88.00;;;;;;5075637;28;20187;-79
2022/09/04 12:00:06;;;;;;;7.90;3.00;;;11.80;88.30;;;;;;5079421;28;20667;-78
2022/09/04 12:03:03;;;;;;;9.30;2.87;;;11.80;88.00;;;;;;5055445;28;20185;-77
2022/09/04 12:06:02;;;;;;;10.90;3.00;;;11.90;88.10;;;;;;5041515;28;20188;-78
2022/09/04 12:08:45;;;;;;;7.60;2.50;;;11.80;87.90;;;;;;5043343;28;20222;-77
2022/09/04 12:11:30;;;;;;;8.67;3.20;;;11.80;87.90;;;;;;5053523;28;20626;-77
2022/09/04 12:14:30;;;;;;;7.97;2.40;;;11.80;87.80;;;;;;5062461;28;20645;-75
2022/09/04 12:17:16;;;;;;;7.80;2.50;;;11.80;87.70;;;;;;5063428;28;20179;-77
2022/09/04 12:20:08;;;;;;;11.93;2.60;;;11.80;87.80;;;;;;5064240;28;20545;-76
2022/09/04 12:23:32;;;;;;;13.97;2.83;;;11.70;87.70;;;;;;5058894;28;20256;-79
2022/09/04 12:26:35;;;;;;;5.60;2.50;;;11.70;87.60;;;;;;5047994;28;20306;-78
2022/09/04 12:29:06;;;;;;;8.60;2.80;;;11.60;87.80;;;;;;5069558;28;20684;-75
2022/09/04 12:32:01;;;;;;;9.93;3.20;;;11.60;87.90;;;;;;5070932;28;20217;-76
2022/09/04 12:34:37;;;;;;;8.40;2.60;;;11.50;87.90;;;;;;5066764;28;20225;-79
2022/09/04 12:37:18;;;;;;;5.57;2.57;;;11.50;88.00;;;;;;5068840;28;20517;-76
2022/09/04 12:40:13;;;;;;;4.03;2.30;;;11.40;88.20;;;;;;5067181;28;20183;-77
2022/09/04 12:42:58;;;;;;;5.80;2.50;;;11.30;88.00;;;;;;5063707;28;20634;-76
2022/09/04 12:45:30;;;;;;;9.20;2.67;;;11.30;88.30;;;;;;5069861;28;20189;-79
2022/09/04 12:48:10;;;;;;;5.07;2.40;;;11.30;88.20;;;;;;5072459;28;20217;-80
2022/09/04 12:50:49;;;;;;;8.33;2.40;;;11.20;88.20;;;;;;5068883;28;20185;-78
2022/09/04 12:53:33;;;;;;;7.40;2.50;;;11.30;88.50;;;;;;5069587;28;20178;-77
2022/09/04 12:56:27;;;;;;;5.60;1.97;;;11.30;88.20;;;;;;5070754;28;20244;-78
2022/09/04 12:58:58;;;;;;;5.97;2.37;;;11.20;88.20;;;;;;5072230;28;20194;-75
2022/09/04 13:01:48;;;;;;;14.53;2.90;;;11.20;88.10;;;;;;5069660;28;20193;-78
2022/09/04 13:04:32;;;;;;;7.23;2.77;;;11.20;88.00;;;;;;5064906;28;20213;-77
2022/09/04 13:07:13;;;;;;;8.67;2.03;;;11.20;87.80;;;;;;5065521;28;20308;-77
2022/09/04 13:09:50;;;;;;;9.73;2.43;;;11.20;87.80;;;;;;5067413;28;20301;-75
2022/09/04 13:12:39;;;;;;;7.67;2.37;;;11.20;87.60;;;;;;5067933;28;20322;-76
2022/09/04 13:15:30;;;;;;;6.97;2.50;;;11.20;87.70;;;;;;5068928;28;20182;-77
2022/09/04 13:18:23;;;;;;;10.27;2.13;;;11.10;87.40;;;;;;5070661;28;20193;-79
2022/09/04 13:21:21;;;;;;;5.30;2.27;;;11.10;87.50;;;;;;5068667;28;20212;-76
2022/09/04 13:23:56;;;;;;;8.00;2.10;;;11.20;87.40;;;;;;5067769;28;20677;-76
2022/09/04 13:26:59;;;;;;;4.03;2.80;;;11.10;87.20;;;;;;5063953;28;20666;-75
2022/09/04 13:29:44;;;;;;;11.40;2.40;;;11.10;87.30;;;;;;5065517;28;20218;-74
2022/09/04 13:32:17;;;;;;;6.57;2.43;;;11.10;87.30;;;;;;5066730;28;20535;-77
2022/09/04 13:35:16;;;;;;;7.77;2.37;;;11.10;87.20;;;;;;5069063;28;20186;-75
2022/09/04 13:38:14;;;;;;;8.43;2.57;;;11.00;87.30;;;;;;5068558;28;20575;-74
2022/09/04 13:41:00;;;;;;;5.77;2.10;;;11.00;87.40;;;;;;5068387;28;20218;-75
2022/09/04 13:43:40;;;;;;;9.10;2.63;;;11.00;87.50;;;;;;5064624;28;20515;-75
2022/09/04 13:46:13;;;;;;;4.83;2.20;;;11.00;87.40;;;;;;5063192;28;20185;-74
2022/09/04 13:48:55;;;;;;;7.20;2.27;;;11.00;87.60;;;;;;5065916;28;20299;-75
2022/09/04 13:51:32;;;;;;;8.63;2.20;;;10.90;87.80;;;;;;5063324;28;20181;-74
2022/09/04 13:54:17;;;;;;;5.07;2.43;;;11.00;88.10;;;;;;5072868;28;20200;-74
2022/09/04 13:57:00;;;;;;;7.60;2.10;;;11.10;87.90;;;;;;5069616;28;20653;-76
2022/09/04 13:59:28;;;;;;;4.77;2.20;;;11.10;87.80;;;;;;5070213;28;20186;-74
2022/09/04 14:02:03;;;;;;;8.27;2.20;;;11.10;87.80;;;;;;5067382;28;20633;-74
2022/09/04 14:04:44;;;;;;;5.60;2.33;;;11.10;87.80;;;;;;5059497;28;20346;-75
2022/09/04 14:07:35;;;;;;;8.43;2.00;;;11.10;87.90;;;;;;5068578;28;20190;-74
2022/09/04 14:10:13;;;;;;;8.00;2.10;;;11.20;87.90;;;;;;5066790;28;20186;-78
2022/09/04 14:12:48;;;;;;;5.83;2.03;;;11.20;87.90;;;;;;5069757;28;20534;-77
2022/09/04 14:15:38;;;;;;;5.37;1.80;;;11.10;87.70;;;;;;5065422;28;20744;-76
2022/09/04 14:18:27;;;;;;;6.17;2.50;;;11.00;87.80;;;;;;5067467;28;20541;-80
2022/09/04 14:21:18;;;;;;;6.53;2.40;;;11.00;87.80;;;;;;5073912;28;20179;-74
2022/09/04 14:23:55;;;;;;;9.47;2.53;;;10.90;88.00;;;;;;5055022;28;20259;-79
2022/09/04 14:26:38;;;;;;;4.90;1.93;;;11.00;88.40;;;;;;5055873;28;20179;-75
2022/09/04 14:29:35;;;;;;;7.83;2.37;;;10.90;88.10;;;;;;5056330;28;20210;-77
2022/09/04 14:32:39;;;;;;;8.10;2.30;;;11.00;88.40;;;;;;5067273;28;20679;-76